Horsham, Australia
Current Conditions -  °F | °C
As of 8:00 AM on Sunday 23 Nov 2014 (Local Time) from YMTG Reporting Station
Clear Clear  
Wind Chill: 54°   Ceiling: Unl
Heat Index: 54°   Visibility: 6mi
Dew Point: 54°   Wind: 6mph
Humidity: 100%   Direction: 30°NNE
Pressure: 29.88"   Gusts: NA
Location:  36.71°S, 142.2°E
Report Text: YMTG 222100Z AUTO 03005KT 9999 // NCD 12/12 Q1012
Loading
Personal Weather Stations






























Interactive Weather Map New forecast layout! Learn more

10-Day Weather Forecast

Advertisements
Track Severe Weather on mobile